Portada
METAR-TAF:

METAR-TAF

Aeroports :

Samara, Rússia

latitud: 53-12N, longitud: 050-09E, altitud: 44 m

Observació

L'informe es va fer fa 20 minuts, a les 00:30 UTC
Vent calma
Temperatura 4°C
Humitat 60%
Pressió 1014 hPa
Visibilitat 10 km o més
sense núvols per sota de 1500 mi sense presència de cumulonimbus.

METAR: UWWW 300030Z 00000MPS CAVOK 04/M03 Q1014 R15/CLRD60 NOSIG RMK QFE749/0999

Hora: 04:50 (00:50 UTC)

Pronòstic

L'informe es va fer fa 1 hora i 59 minuts, a les 22:51 UTC
Pronòstic vàlid del 30 a les 00 UTC al 30 a les 24 UTC
Vent 10 kt del Sud
Visibilitat 10 km o més
Núvols disperses a una alçada de 2500 ft
Temporalment
l' 30 a les 00 UTC al 30 a les 06 UTC
Vent 6 kt del Sud-Est
Visibilitat: 3000 m
boirina
Temporalment
l' 30 a les 06 UTC al 30 a les 15 UTC
Vent 12 kt del Sud/Sud-Est amb ràfegues de 25 kt

TAF: UWWW 292251Z 3000/3024 17005MPS 9999 SCT025 TX13/3011Z TN02/3003Z TEMPO 3000/3006 13003MPS 3000 BR TEMPO 3006/3015 16006G13MPS

Observacions i pronòstics meteorològics de més de 4000 aeroports (METAR i TAF).

Les estacions disponibles són els punts grocs i vermells al mapa.

Posi el ratolí al punt desitjat per veure el nom de l'estació.

Feu clic per veure les observacions i els pronòstics meteorològics.

Per canviar el mapa: feu clic els botons verds amb una creu de color negre per apropar; al botó verd amb un guió per allunyar la imatge; o en les fletxes verdes per a mapes adjacents.


METAR-TAF: